createdAt,value
2018-12-20T00:00:12.895Z,85.82
2018-12-20T00:00:44.063Z,85.22
2018-12-20T00:01:15.520Z,85.24
2018-12-20T00:01:46.675Z,85.43
2018-12-20T00:02:17.815Z,85.65
2018-12-20T00:02:48.929Z,85.74
2018-12-20T00:03:20.046Z,85.28
2018-12-20T00:03:52.161Z,85.04
2018-12-20T00:04:23.389Z,85.38
2018-12-20T00:04:54.630Z,85.09
2018-12-20T00:05:25.842Z,85.13
2018-12-20T00:05:56.973Z,85.10
2018-12-20T00:06:28.172Z,85.03
2018-12-20T00:06:59.404Z,85.01
2018-12-20T00:07:30.616Z,85.24
2018-12-20T00:08:01.752Z,85.33
2018-12-20T00:08:32.909Z,84.78
2018-12-20T00:09:04.144Z,85.13
2018-12-20T00:09:35.267Z,84.32
2018-12-20T00:10:06.423Z,84.51
2018-12-20T00:10:37.651Z,84.26
2018-12-20T00:11:08.873Z,84.41
2018-12-20T00:11:40.090Z,84.40
2018-12-20T00:12:11.267Z,84.94
2018-12-20T00:12:42.379Z,84.55
2018-12-20T00:13:13.486Z,84.24
2018-12-20T00:13:44.601Z,84.53
2018-12-20T00:14:15.833Z,84.31
2018-12-20T00:14:46.984Z,84.10
2018-12-20T00:15:18.150Z,84.44
2018-12-20T00:15:49.387Z,84.04
2018-12-20T00:16:20.690Z,84.26
2018-12-20T00:16:51.886Z,83.82
2018-12-20T00:17:23.146Z,83.88
2018-12-20T00:17:54.400Z,83.87
2018-12-20T00:18:25.590Z,83.68
2018-12-20T00:18:57.517Z,84.38
2018-12-20T00:19:28.785Z,84.00
2018-12-20T00:20:00.775Z,83.84
2018-12-20T00:20:31.997Z,83.57
2018-12-20T00:21:03.230Z,83.40
2018-12-20T00:21:34.544Z,83.26
2018-12-20T00:22:05.683Z,83.95
2018-12-20T00:22:37.006Z,83.76
2018-12-20T00:23:08.194Z,83.86
2018-12-20T00:23:39.397Z,83.42
2018-12-20T00:24:10.701Z,83.06
2018-12-20T00:24:41.955Z,83.06
2018-12-20T00:25:13.253Z,83.16
2018-12-20T00:25:44.403Z,83.28
2018-12-20T00:26:15.552Z,82.76
2018-12-20T00:26:46.794Z,82.94
2018-12-20T00:27:17.986Z,82.49
2018-12-20T00:27:49.099Z,82.68
2018-12-20T00:28:20.213Z,82.94
2018-12-20T00:28:51.554Z,82.95
2018-12-20T00:29:22.740Z,82.71
2018-12-20T00:29:53.992Z,82.84
2018-12-20T00:30:25.266Z,82.63
2018-12-20T00:30:56.437Z,82.63
2018-12-20T00:31:27.609Z,82.54
2018-12-20T00:31:58.872Z,83.04
2018-12-20T00:32:29.994Z,83.30
2018-12-20T00:33:01.128Z,83.09
2018-12-20T00:33:32.512Z,83.22
2018-12-20T00:34:03.724Z,83.33
2018-12-20T00:34:34.870Z,82.66
2018-12-20T00:35:06.139Z,83.28
2018-12-20T00:35:37.370Z,82.98
2018-12-20T00:36:08.597Z,83.32
2018-12-20T00:36:39.712Z,83.37
2018-12-20T00:37:10.815Z,83.40
2018-12-20T00:37:41.963Z,83.25
2018-12-20T00:38:13.202Z,83.05
2018-12-20T00:38:44.422Z,83.41
2018-12-20T00:39:15.543Z,83.02
2018-12-20T00:39:46.701Z,82.77
2018-12-20T00:40:17.818Z,82.84
2018-12-20T00:40:49.032Z,83.20
2018-12-20T00:41:20.163Z,83.08
2018-12-20T00:41:51.427Z,82.52
2018-12-20T00:42:22.643Z,83.09
2018-12-20T00:42:53.937Z,82.88
2018-12-20T00:43:25.116Z,82.93
2018-12-20T00:43:56.366Z,83.01
2018-12-20T00:44:27.598Z,83.09
2018-12-20T00:44:58.865Z,82.88
2018-12-20T00:45:30.283Z,82.97
2018-12-20T00:46:02.164Z,82.46
2018-12-20T00:46:33.272Z,82.75
2018-12-20T00:47:04.517Z,82.66
2018-12-20T00:47:35.658Z,82.68
2018-12-20T00:48:06.845Z,82.75
2018-12-20T00:48:38.056Z,82.95
2018-12-20T00:49:09.196Z,82.84
2018-12-20T00:49:40.359Z,83.04
2018-12-20T00:50:11.763Z,83.61
2018-12-20T00:50:42.968Z,83.14
2018-12-20T00:51:14.200Z,82.84
2018-12-20T00:51:45.408Z,82.97
2018-12-20T00:52:16.536Z,83.35
2018-12-20T00:52:47.755Z,83.57
2018-12-20T00:53:18.907Z,82.96
2018-12-20T00:53:50.130Z,83.23
2018-12-20T00:54:21.307Z,83.30
2018-12-20T00:54:52.424Z,82.89
2018-12-20T00:55:23.600Z,82.94
2018-12-20T00:55:55.106Z,82.80
2018-12-20T00:56:26.464Z,82.48
2018-12-20T00:56:58.405Z,82.59
2018-12-20T00:57:29.514Z,82.58
2018-12-20T00:58:00.703Z,83.12
2018-12-20T00:58:31.922Z,82.42
2018-12-20T00:59:03.247Z,82.55
2018-12-20T00:59:34.435Z,83.33
2018-12-20T01:00:05.553Z,82.77
2018-12-20T01:00:37.653Z,82.76
2018-12-20T01:01:08.965Z,83.53
2018-12-20T01:01:40.145Z,82.94
2018-12-20T01:02:11.374Z,83.45
2018-12-20T01:02:42.665Z,83.19
2018-12-20T01:03:13.897Z,83.20
2018-12-20T01:03:45.017Z,83.48
2018-12-20T01:04:16.135Z,82.83
2018-12-20T01:04:47.332Z,83.18
2018-12-20T01:05:18.633Z,82.82
2018-12-20T01:05:49.831Z,83.01
2018-12-20T01:06:20.962Z,83.24
2018-12-20T01:06:52.139Z,83.76
2018-12-20T01:07:24.415Z,83.17
2018-12-20T01:07:55.646Z,83.59
2018-12-20T01:08:26.802Z,83.64
2018-12-20T01:08:58.220Z,83.23
2018-12-20T01:09:29.395Z,83.94
2018-12-20T01:10:00.540Z,83.40
2018-12-20T01:10:31.753Z,83.54
2018-12-20T01:11:02.917Z,83.48
2018-12-20T01:11:34.744Z,83.73
2018-12-20T01:12:05.888Z,83.30
2018-12-20T01:12:37.188Z,83.67
2018-12-20T01:13:08.400Z,83.30
2018-12-20T01:13:39.542Z,83.14
2018-12-20T01:14:10.786Z,83.37
2018-12-20T01:14:45.284Z,83.04
2018-12-20T01:15:15.259Z,83.14
2018-12-20T01:15:46.593Z,83.43
2018-12-20T01:16:17.848Z,83.30
2018-12-20T01:16:49.110Z,82.88
2018-12-20T01:17:20.266Z,83.11
2018-12-20T01:17:51.431Z,83.50
2018-12-20T01:18:22.984Z,83.10
2018-12-20T01:18:54.168Z,83.13
2018-12-20T01:19:25.412Z,83.15
2018-12-20T01:19:56.633Z,83.04
2018-12-20T01:20:27.923Z,83.12
2018-12-20T01:20:59.150Z,82.64
2018-12-20T01:21:30.405Z,83.21
2018-12-20T01:22:01.811Z,82.67
2018-12-20T01:22:33.058Z,82.90
2018-12-20T01:23:04.531Z,83.11
2018-12-20T01:23:35.744Z,83.06
2018-12-20T01:24:06.862Z,83.15
2018-12-20T01:24:38.878Z,82.56
2018-12-20T01:25:10.084Z,82.68
2018-12-20T01:25:41.352Z,82.78
2018-12-20T01:26:12.611Z,82.92
2018-12-20T01:26:43.926Z,82.83
2018-12-20T01:27:16.128Z,82.44
2018-12-20T01:27:47.271Z,83.33
2018-12-20T01:28:18.553Z,82.96
2018-12-20T01:28:49.763Z,82.51
2018-12-20T01:29:21.591Z,83.24
2018-12-20T01:29:52.748Z,82.63
2018-12-20T01:30:24.029Z,82.74
2018-12-20T01:30:55.331Z,82.95
2018-12-20T01:31:26.683Z,83.31
2018-12-20T01:31:57.879Z,83.11
2018-12-20T01:32:29.093Z,83.01
2018-12-20T01:33:00.302Z,82.83
2018-12-20T01:33:31.693Z,82.78
2018-12-20T01:34:02.948Z,83.19
2018-12-20T01:34:34.176Z,82.91
2018-12-20T01:35:05.387Z,83.14
2018-12-20T01:35:36.636Z,82.72
2018-12-20T01:36:07.845Z,83.35
2018-12-20T01:36:39.147Z,83.08
2018-12-20T01:37:10.477Z,82.72
2018-12-20T01:37:41.711Z,82.31
2018-12-20T01:38:12.833Z,82.83
2018-12-20T01:38:44.130Z,82.47
2018-12-20T01:39:15.332Z,82.70
2018-12-20T01:39:46.659Z,82.74
2018-12-20T01:40:18.014Z,82.92
2018-12-20T01:40:49.263Z,82.53
2018-12-20T01:41:20.390Z,83.08
2018-12-20T01:41:51.641Z,82.84
2018-12-20T01:42:22.921Z,83.16
2018-12-20T01:42:54.247Z,83.21
2018-12-20T01:43:25.398Z,83.37
2018-12-20T01:43:56.687Z,82.94
2018-12-20T01:44:27.848Z,83.19
2018-12-20T01:44:59.362Z,82.92
2018-12-20T01:45:30.601Z,83.37
2018-12-20T01:46:02.087Z,82.78
2018-12-20T01:46:33.344Z,83.33
2018-12-20T01:47:04.512Z,82.74
2018-12-20T01:47:35.909Z,82.75
2018-12-20T01:48:07.193Z,82.42
2018-12-20T01:48:38.409Z,82.65
2018-12-20T01:49:11.004Z,82.67
2018-12-20T01:49:42.221Z,82.28
2018-12-20T01:50:13.513Z,82.42
2018-12-20T01:50:44.733Z,82.87
2018-12-20T01:51:15.870Z,82.54
2018-12-20T01:51:46.990Z,82.47
2018-12-20T01:52:18.108Z,82.65
2018-12-20T01:52:49.237Z,82.61
2018-12-20T01:53:20.523Z,82.20
2018-12-20T01:53:51.714Z,82.67
2018-12-20T01:54:23.009Z,82.58
2018-12-20T01:54:54.269Z,82.39
2018-12-20T01:55:25.532Z,82.84
2018-12-20T01:55:56.824Z,82.55
2018-12-20T01:56:28.028Z,82.58
2018-12-20T01:56:59.195Z,82.74
2018-12-20T01:57:30.559Z,83.02
2018-12-20T01:58:01.823Z,82.70
2018-12-20T01:58:33.086Z,81.66
2018-12-20T01:59:04.510Z,81.40
2018-12-20T01:59:35.838Z,81.56
2018-12-20T02:00:07.052Z,81.55
2018-12-20T02:00:39.052Z,80.77
2018-12-20T02:01:10.613Z,81.06
2018-12-20T02:01:42.149Z,80.62
2018-12-20T02:02:13.567Z,80.78
2018-12-20T02:02:45.052Z,80.40
2018-12-20T02:03:16.266Z,79.69
2018-12-20T02:03:47.551Z,80.35
2018-12-20T02:04:18.774Z,80.01
2018-12-20T02:04:50.764Z,80.55
2018-12-20T02:05:21.919Z,80.65
2018-12-20T02:05:53.201Z,80.51
2018-12-20T02:06:24.754Z,80.04
2018-12-20T02:06:55.986Z,80.25
2018-12-20T02:07:27.124Z,80.25
2018-12-20T02:07:58.383Z,80.77
2018-12-20T02:08:30.606Z,80.98
2018-12-20T02:09:01.979Z,80.46
2018-12-20T02:09:33.255Z,80.58
2018-12-20T02:10:04.473Z,80.92
2018-12-20T02:10:35.656Z,81.12
2018-12-20T02:11:06.765Z,81.36
2018-12-20T02:11:38.092Z,81.68
2018-12-20T02:12:09.400Z,81.02
2018-12-20T02:12:40.548Z,81.59
2018-12-20T02:13:11.808Z,81.10
2018-12-20T02:13:43.102Z,81.88
2018-12-20T02:14:14.399Z,81.77
2018-12-20T02:14:45.613Z,81.80
2018-12-20T02:15:16.854Z,81.47
2018-12-20T02:15:48.585Z,81.53
2018-12-20T02:16:20.008Z,82.23
2018-12-20T02:16:51.152Z,81.54
2018-12-20T02:17:22.442Z,81.66
2018-12-20T02:17:53.616Z,82.06
2018-12-20T02:18:24.752Z,82.29
2018-12-20T02:18:56.068Z,82.06
2018-12-20T02:19:28.008Z,82.00
2018-12-20T02:19:59.256Z,81.99
2018-12-20T02:20:30.474Z,82.14
2018-12-20T02:21:01.630Z,82.29
2018-12-20T02:21:32.973Z,82.41
2018-12-20T02:22:04.181Z,81.65
2018-12-20T02:22:35.303Z,81.54
2018-12-20T02:23:06.412Z,81.84
2018-12-20T02:23:37.846Z,82.34
2018-12-20T02:24:09.092Z,82.28
2018-12-20T02:24:40.348Z,82.10
2018-12-20T02:25:11.468Z,81.75
2018-12-20T02:25:42.598Z,82.20
2018-12-20T02:26:13.871Z,82.17
2018-12-20T02:26:45.088Z,82.25
2018-12-20T02:27:16.353Z,82.66
2018-12-20T02:27:47.686Z,81.87
2018-12-20T02:28:19.060Z,82.79
2018-12-20T02:28:50.228Z,82.66
2018-12-20T02:29:21.402Z,82.84
2018-12-20T02:29:52.633Z,82.58
2018-12-20T02:30:23.838Z,82.50
2018-12-20T02:30:54.988Z,82.38
2018-12-20T02:31:26.212Z,82.73
2018-12-20T02:31:57.365Z,83.07
2018-12-20T02:32:28.480Z,83.03
2018-12-20T02:32:59.828Z,82.59
2018-12-20T02:33:31.025Z,82.52
2018-12-20T02:34:02.222Z,82.49
2018-12-20T02:34:33.432Z,82.86
2018-12-20T02:35:04.585Z,82.85
2018-12-20T02:35:35.784Z,82.59
2018-12-20T02:36:07.240Z,82.69
2018-12-20T02:36:38.539Z,82.42
2018-12-20T02:37:09.735Z,82.89
2018-12-20T02:37:40.959Z,82.47
2018-12-20T02:38:12.200Z,82.48
2018-12-20T02:38:43.613Z,82.81
2018-12-20T02:39:14.889Z,83.09
2018-12-20T02:39:46.113Z,82.89
2018-12-20T02:40:17.349Z,83.05
2018-12-20T02:40:48.592Z,82.66
2018-12-20T02:41:19.905Z,83.13
2018-12-20T02:41:51.130Z,82.79
2018-12-20T02:42:22.357Z,82.90
2018-12-20T02:42:53.518Z,82.44
2018-12-20T02:43:24.625Z,82.70
2018-12-20T02:43:55.785Z,83.29
2018-12-20T02:44:26.981Z,82.87
2018-12-20T02:44:58.226Z,82.94
2018-12-20T02:45:29.683Z,83.14
2018-12-20T02:46:00.840Z,83.15
2018-12-20T02:46:32.021Z,83.49
2018-12-20T02:47:03.194Z,83.02
2018-12-20T02:47:34.300Z,82.93
2018-12-20T02:48:06.596Z,82.73
2018-12-20T02:48:38.029Z,83.27
2018-12-20T02:49:09.262Z,83.38
2018-12-20T02:49:40.605Z,83.10
2018-12-20T02:50:11.837Z,82.82
2018-12-20T02:50:43.150Z,82.81
2018-12-20T02:51:14.368Z,83.27
2018-12-20T02:51:45.672Z,83.55
2018-12-20T02:52:16.909Z,83.33
2018-12-20T02:52:48.107Z,83.74
2018-12-20T02:53:19.271Z,83.37
2018-12-20T02:53:50.399Z,83.31
2018-12-20T02:54:21.553Z,83.47
2018-12-20T02:54:52.908Z,82.86
2018-12-20T02:55:24.381Z,83.37
2018-12-20T02:55:55.564Z,83.08
2018-12-20T02:56:26.951Z,83.14
2018-12-20T02:56:58.093Z,83.02
2018-12-20T02:57:29.246Z,83.21
2018-12-20T02:58:00.659Z,82.77
2018-12-20T02:58:32.066Z,82.96
2018-12-20T02:59:03.228Z,82.87
2018-12-20T02:59:34.419Z,83.49
2018-12-20T03:00:05.679Z,82.83
2018-12-20T03:00:36.936Z,83.04
2018-12-20T03:01:08.057Z,83.31
2018-12-20T03:01:39.341Z,83.37
2018-12-20T03:02:10.551Z,83.26
2018-12-20T03:02:41.881Z,83.59
2018-12-20T03:03:13.021Z,83.28
2018-12-20T03:03:44.203Z,83.17
2018-12-20T03:04:15.411Z,83.34
2018-12-20T03:04:46.659Z,82.83
2018-12-20T03:05:17.794Z,83.78
2018-12-20T03:05:49.018Z,83.88
2018-12-20T03:06:21.116Z,83.54
2018-12-20T03:06:52.287Z,83.47
2018-12-20T03:07:23.439Z,83.88
2018-12-20T03:07:54.555Z,83.48
2018-12-20T03:08:25.674Z,83.73
2018-12-20T03:08:56.986Z,84.05
2018-12-20T03:09:28.180Z,83.51
2018-12-20T03:09:59.322Z,84.02
2018-12-20T03:10:30.636Z,83.56
2018-12-20T03:11:01.790Z,83.76
2018-12-20T03:11:32.982Z,84.31
2018-12-20T03:12:04.238Z,83.28
2018-12-20T03:12:35.516Z,83.72
2018-12-20T03:13:06.980Z,83.40
2018-12-20T03:13:38.839Z,83.89
2018-12-20T03:14:10.304Z,83.54
2018-12-20T03:14:41.504Z,83.56
2018-12-20T03:15:19.959Z,83.14
2018-12-20T03:15:45.953Z,83.67
2018-12-20T03:16:17.291Z,83.01
2018-12-20T03:16:48.514Z,83.17
2018-12-20T03:17:19.720Z,83.06
2018-12-20T03:17:51.030Z,83.51
2018-12-20T03:18:22.301Z,83.31
2018-12-20T03:18:53.593Z,83.04
2018-12-20T03:19:24.766Z,83.05
2018-12-20T03:19:55.877Z,83.17
2018-12-20T03:20:26.996Z,83.44
2018-12-20T03:20:58.172Z,83.14
2018-12-20T03:21:29.507Z,83.73
2018-12-20T03:22:00.895Z,83.94
2018-12-20T03:22:32.058Z,83.68
2018-12-20T03:23:03.409Z,83.25
2018-12-20T03:23:34.758Z,83.10
2018-12-20T03:24:06.036Z,83.01
2018-12-20T03:24:37.319Z,83.21
2018-12-20T03:25:08.573Z,82.94
2018-12-20T03:25:39.960Z,84.08
2018-12-20T03:26:11.237Z,83.94
2018-12-20T03:26:42.393Z,83.29
2018-12-20T03:27:13.565Z,83.00
2018-12-20T03:27:44.709Z,82.92
2018-12-20T03:28:15.983Z,82.79
2018-12-20T03:28:48.275Z,83.08
2018-12-20T03:29:19.552Z,83.03
2018-12-20T03:29:50.913Z,82.91
2018-12-20T03:30:22.158Z,83.68
2018-12-20T03:30:53.342Z,83.27
2018-12-20T03:31:24.565Z,83.31
2018-12-20T03:31:55.806Z,83.36
2018-12-20T03:32:27.046Z,82.79
2018-12-20T03:32:58.311Z,83.26
2018-12-20T03:33:30.395Z,82.98
2018-12-20T03:34:01.925Z,83.25
2018-12-20T03:34:33.207Z,83.19
2018-12-20T03:35:04.322Z,82.94
2018-12-20T03:35:35.433Z,83.77
2018-12-20T03:36:06.620Z,83.01
2018-12-20T03:36:37.791Z,83.33
2018-12-20T03:37:09.184Z,83.77
2018-12-20T03:37:40.416Z,83.25
2018-12-20T03:38:11.691Z,83.77
2018-12-20T03:38:43.100Z,83.78
2018-12-20T03:39:14.261Z,83.13
2018-12-20T03:39:45.504Z,83.58
2018-12-20T03:40:16.803Z,83.13
2018-12-20T03:40:48.154Z,82.83
2018-12-20T03:41:19.532Z,83.02
2018-12-20T03:41:50.895Z,83.05
2018-12-20T03:42:22.089Z,82.69
2018-12-20T03:42:53.399Z,82.12
2018-12-20T03:43:24.678Z,82.80
2018-12-20T03:43:55.837Z,82.54
2018-12-20T03:44:27.030Z,82.28
2018-12-20T03:44:58.233Z,82.23
2018-12-20T03:45:29.499Z,81.68
2018-12-20T03:46:00.701Z,82.07
2018-12-20T03:46:31.887Z,82.10
2018-12-20T03:47:03.368Z,81.55
2018-12-20T03:47:35.062Z,81.91
2018-12-20T03:48:06.701Z,82.34
2018-12-20T03:48:38.207Z,81.77
2018-12-20T03:49:09.406Z,82.13
2018-12-20T03:49:40.795Z,82.03
2018-12-20T03:50:12.022Z,81.90
2018-12-20T03:50:43.260Z,82.29
2018-12-20T03:51:14.490Z,81.80
2018-12-20T03:51:45.894Z,82.04
2018-12-20T03:52:17.167Z,82.63
2018-12-20T03:52:48.492Z,83.07
2018-12-20T03:53:19.831Z,82.66
2018-12-20T03:53:50.979Z,82.35
2018-12-20T03:54:22.157Z,82.61
2018-12-20T03:54:53.568Z,83.06
2018-12-20T03:55:24.734Z,83.42
2018-12-20T03:55:55.909Z,83.39
2018-12-20T03:56:27.325Z,82.59
2018-12-20T03:56:58.654Z,83.00
2018-12-20T03:57:29.902Z,82.58
2018-12-20T03:58:01.174Z,83.24
2018-12-20T03:58:32.360Z,82.91
2018-12-20T03:59:03.589Z,82.91
2018-12-20T03:59:34.868Z,82.74
2018-12-20T04:00:06.149Z,83.70
2018-12-20T04:00:37.328Z,83.69
2018-12-20T04:01:08.449Z,83.86
2018-12-20T04:01:39.576Z,83.87
2018-12-20T04:02:10.676Z,84.65
2018-12-20T04:02:42.004Z,83.94
2018-12-20T04:03:13.347Z,83.88
2018-12-20T04:03:44.584Z,83.50
2018-12-20T04:04:15.861Z,83.54
2018-12-20T04:04:47.394Z,83.06
2018-12-20T04:05:18.745Z,83.05
2018-12-20T04:05:49.946Z,82.48
2018-12-20T04:06:21.204Z,82.48
2018-12-20T04:06:52.470Z,82.28
2018-12-20T04:07:23.620Z,82.49
2018-12-20T04:07:54.911Z,82.00
2018-12-20T04:08:26.064Z,82.18
2018-12-20T04:08:57.183Z,82.35
2018-12-20T04:09:28.477Z,81.63
2018-12-20T04:09:59.676Z,82.16
2018-12-20T04:10:30.868Z,81.77
2018-12-20T04:11:02.031Z,82.29
2018-12-20T04:11:33.240Z,82.44
2018-12-20T04:12:04.523Z,83.51
2018-12-20T04:12:35.731Z,82.42
2018-12-20T04:13:06.928Z,82.14
2018-12-20T04:13:38.084Z,81.35
2018-12-20T04:14:09.351Z,81.62
2018-12-20T04:14:40.815Z,81.07
2018-12-20T04:15:12.029Z,81.41
2018-12-20T04:15:43.167Z,81.05
2018-12-20T04:16:14.299Z,80.91
2018-12-20T04:16:45.748Z,80.80
2018-12-20T04:17:17.076Z,81.10
2018-12-20T04:17:48.495Z,81.15
2018-12-20T04:18:19.698Z,81.33
2018-12-20T04:18:50.867Z,80.74
2018-12-20T04:19:22.133Z,80.75
2018-12-20T04:19:53.353Z,81.25
2018-12-20T04:20:24.476Z,80.41
2018-12-20T04:20:55.852Z,81.03
2018-12-20T04:21:27.085Z,80.80
2018-12-20T04:21:58.251Z,80.68
2018-12-20T04:22:29.368Z,80.29
2018-12-20T04:23:00.490Z,80.69
2018-12-20T04:23:31.701Z,80.41
2018-12-20T04:24:02.868Z,80.44
2018-12-20T04:24:34.102Z,81.10
2018-12-20T04:25:05.244Z,81.15
2018-12-20T04:25:36.367Z,81.68
2018-12-20T04:26:07.501Z,81.53
2018-12-20T04:26:38.677Z,81.68
2018-12-20T04:27:09.988Z,82.30
2018-12-20T04:27:41.256Z,81.65
2018-12-20T04:28:13.325Z,81.80
2018-12-20T04:28:44.620Z,81.97
2018-12-20T04:29:15.981Z,81.19
2018-12-20T04:29:47.181Z,81.40
2018-12-20T04:30:18.543Z,81.69
2018-12-20T04:30:49.742Z,81.49
2018-12-20T04:31:20.932Z,81.64
2018-12-20T04:31:52.418Z,81.40
2018-12-20T04:32:23.688Z,81.51
2018-12-20T04:32:54.888Z,81.57
2018-12-20T04:33:26.168Z,81.56
2018-12-20T04:33:57.345Z,81.63
2018-12-20T04:34:28.682Z,82.09
2018-12-20T04:35:00.484Z,81.66
2018-12-20T04:35:31.678Z,82.59
2018-12-20T04:36:02.857Z,82.21
2018-12-20T04:36:34.044Z,82.08
2018-12-20T04:37:05.156Z,81.51
2018-12-20T04:37:36.269Z,81.70
2018-12-20T04:38:07.390Z,82.08
2018-12-20T04:38:38.554Z,81.79
2018-12-20T04:39:09.757Z,81.38
2018-12-20T04:39:41.074Z,81.89
2018-12-20T04:40:12.313Z,82.16
2018-12-20T04:40:43.641Z,81.88
2018-12-20T04:41:14.798Z,81.62
2018-12-20T04:41:46.129Z,82.20
2018-12-20T04:42:17.402Z,82.01
2018-12-20T04:42:48.593Z,82.74
2018-12-20T04:43:19.933Z,82.14
2018-12-20T04:43:51.087Z,81.75
2018-12-20T04:44:22.543Z,82.35
2018-12-20T04:44:53.869Z,82.79
2018-12-20T04:45:25.213Z,82.71
2018-12-20T04:45:56.463Z,82.28
2018-12-20T04:46:28.070Z,82.27
2018-12-20T04:46:59.717Z,81.92
2018-12-20T04:47:31.518Z,82.46
2018-12-20T04:48:02.957Z,82.12
2018-12-20T04:48:34.370Z,82.57
2018-12-20T04:49:06.361Z,81.82
2018-12-20T04:49:37.499Z,82.21
2018-12-20T04:50:08.725Z,82.16
2018-12-20T04:50:39.936Z,82.11
2018-12-20T04:51:11.161Z,81.51
2018-12-20T04:51:42.377Z,81.97
2018-12-20T04:52:13.631Z,82.38
2018-12-20T04:52:44.938Z,82.14
2018-12-20T04:53:16.216Z,81.36
2018-12-20T04:53:47.401Z,82.30
2018-12-20T04:54:18.706Z,81.81
2018-12-20T04:54:49.906Z,81.70
2018-12-20T04:55:21.018Z,81.91
2018-12-20T04:55:52.155Z,82.07
2018-12-20T04:56:23.276Z,81.60
2018-12-20T04:56:54.664Z,81.52
2018-12-20T04:57:27.191Z,81.54
2018-12-20T04:57:58.612Z,81.54
2018-12-20T04:58:29.852Z,82.13
2018-12-20T04:59:00.989Z,81.79
2018-12-20T04:59:32.441Z,81.89
2018-12-20T05:00:03.672Z,82.41
2018-12-20T05:00:34.822Z,82.11
2018-12-20T05:01:06.116Z,82.30
2018-12-20T05:01:37.390Z,81.89
2018-12-20T05:02:08.574Z,82.48
2018-12-20T05:02:39.934Z,82.21
2018-12-20T05:03:11.397Z,82.58
2018-12-20T05:03:42.830Z,82.04
2018-12-20T05:04:14.338Z,82.86
2018-12-20T05:04:45.574Z,82.54
2018-12-20T05:05:16.693Z,82.85
2018-12-20T05:05:48.182Z,82.05
2018-12-20T05:06:19.486Z,82.82
2018-12-20T05:06:50.602Z,82.51
2018-12-20T05:07:21.744Z,82.44
2018-12-20T05:07:52.957Z,81.89
2018-12-20T05:08:24.576Z,82.08
2018-12-20T05:08:56.622Z,82.50
2018-12-20T05:09:27.809Z,82.80
2018-12-20T05:09:58.928Z,82.02
2018-12-20T05:10:30.345Z,82.90
2018-12-20T05:11:01.752Z,82.89
2018-12-20T05:11:32.967Z,82.93
2018-12-20T05:12:04.108Z,82.66
2018-12-20T05:12:35.450Z,82.24
2018-12-20T05:13:06.971Z,82.18
2018-12-20T05:13:38.205Z,82.66
2018-12-20T05:14:09.425Z,82.69
2018-12-20T05:14:40.814Z,82.12
2018-12-20T05:15:12.120Z,82.81
2018-12-20T05:15:43.308Z,83.12
2018-12-20T05:16:14.593Z,83.35
2018-12-20T05:16:46.046Z,83.31
2018-12-20T05:17:17.348Z,82.99
2018-12-20T05:17:48.524Z,82.62
2018-12-20T05:18:20.321Z,82.80
2018-12-20T05:18:51.449Z,82.65
2018-12-20T05:19:22.685Z,82.79
2018-12-20T05:19:54.056Z,83.19
2018-12-20T05:20:25.283Z,82.84
2018-12-20T05:20:56.683Z,83.10
2018-12-20T05:21:28.015Z,82.53
2018-12-20T05:21:59.373Z,82.70
2018-12-20T05:22:30.607Z,82.84
2018-12-20T05:23:01.749Z,82.91
2018-12-20T05:23:32.943Z,82.94
2018-12-20T05:24:04.120Z,82.74
2018-12-20T05:24:35.271Z,82.96
2018-12-20T05:25:06.674Z,83.32
2018-12-20T05:25:38.129Z,82.53
2018-12-20T05:26:10.506Z,82.68
2018-12-20T05:26:41.867Z,83.19
2018-12-20T05:27:13.056Z,82.66
2018-12-20T05:27:46.717Z,83.29
2018-12-20T05:28:17.955Z,83.00
2018-12-20T05:28:49.310Z,83.09
2018-12-20T05:29:20.675Z,82.55
2018-12-20T05:29:51.920Z,82.14
2018-12-20T05:30:27.172Z,82.21
2018-12-20T05:30:58.368Z,82.60
2018-12-20T05:31:29.513Z,82.01
2018-12-20T05:32:01.229Z,82.86
2018-12-20T05:32:33.130Z,82.82
2018-12-20T05:33:05.490Z,82.67
2018-12-20T05:33:36.921Z,83.11
2018-12-20T05:34:08.717Z,82.65
2018-12-20T05:34:42.287Z,82.91
2018-12-20T05:35:13.513Z,83.31
2018-12-20T05:35:44.874Z,82.83
2018-12-20T05:36:16.817Z,82.68
2018-12-20T05:36:48.634Z,83.27
2018-12-20T05:37:19.942Z,82.75
2018-12-20T05:37:51.245Z,82.45
2018-12-20T05:38:22.756Z,82.08
2018-12-20T05:38:54.032Z,82.44
2018-12-20T05:39:25.450Z,82.78
2018-12-20T05:39:56.728Z,82.81
2018-12-20T05:40:27.922Z,82.30
2018-12-20T05:40:59.248Z,82.18
2018-12-20T05:41:30.506Z,82.06
2018-12-20T05:42:01.654Z,82.85
2018-12-20T05:42:32.926Z,83.05
2018-12-20T05:43:04.266Z,82.23
2018-12-20T05:43:35.497Z,82.79
2018-12-20T05:44:08.193Z,82.66
2018-12-20T05:44:39.763Z,83.18
2018-12-20T05:45:10.919Z,83.08
2018-12-20T05:45:42.049Z,83.34
2018-12-20T05:46:13.206Z,82.76
2018-12-20T05:46:44.416Z,82.84
2018-12-20T05:47:15.595Z,82.94
2018-12-20T05:47:46.817Z,83.19
2018-12-20T05:48:18.158Z,83.67
2018-12-20T05:48:49.484Z,82.89
2018-12-20T05:49:20.660Z,83.59
2018-12-20T05:49:51.805Z,82.86
2018-12-20T05:50:23.037Z,83.35
2018-12-20T05:50:54.460Z,83.48
2018-12-20T05:51:25.847Z,82.84
2018-12-20T05:51:57.024Z,83.33
2018-12-20T05:52:28.280Z,82.75
2018-12-20T05:52:59.476Z,82.72
2018-12-20T05:53:30.777Z,82.42
2018-12-20T05:54:02.109Z,83.03
2018-12-20T05:54:33.440Z,83.16
2018-12-20T05:55:04.701Z,82.70
2018-12-20T05:55:35.897Z,82.50
2018-12-20T05:56:07.057Z,82.59
2018-12-20T05:56:38.479Z,82.99
2018-12-20T05:57:09.846Z,83.18
2018-12-20T05:57:41.082Z,83.37
2018-12-20T05:58:12.469Z,82.58
2018-12-20T05:58:44.589Z,82.47
2018-12-20T06:00:01.799Z,82.84
2018-12-20T06:00:32.990Z,82.88
2018-12-20T06:01:04.380Z,82.97
2018-12-20T06:01:35.504Z,82.87
2018-12-20T06:02:06.635Z,83.16
2018-12-20T06:02:37.821Z,83.29
2018-12-20T06:03:09.029Z,83.17
2018-12-20T06:03:41.023Z,83.43
2018-12-20T06:04:12.296Z,83.38
2018-12-20T06:04:43.664Z,83.04
2018-12-20T06:05:14.879Z,82.84
2018-12-20T06:05:46.074Z,83.10
2018-12-20T06:06:17.185Z,82.78
2018-12-20T06:06:48.410Z,82.77
2018-12-20T06:07:19.553Z,82.69
2018-12-20T06:07:50.714Z,82.40
2018-12-20T06:08:22.134Z,82.84
2018-12-20T06:08:53.579Z,82.54
2018-12-20T06:09:24.804Z,82.01
2018-12-20T06:09:55.952Z,82.04
2018-12-20T06:10:27.198Z,82.37
2018-12-20T06:10:58.452Z,81.78
2018-12-20T06:11:29.842Z,82.60
2018-12-20T06:12:01.000Z,81.74
2018-12-20T06:12:32.253Z,81.25
2018-12-20T06:13:03.546Z,81.34
2018-12-20T06:13:34.731Z,81.14
2018-12-20T06:14:05.997Z,81.69
2018-12-20T06:14:37.436Z,81.29
2018-12-20T06:15:08.650Z,81.69
2018-12-20T06:15:40.008Z,81.91
2018-12-20T06:16:12.991Z,82.30
2018-12-20T06:16:44.361Z,81.44
2018-12-20T06:17:15.716Z,81.73
2018-12-20T06:17:47.051Z,81.39
2018-12-20T06:18:18.227Z,82.25
2018-12-20T06:18:49.435Z,81.52
2018-12-20T06:19:20.954Z,81.84
2018-12-20T06:19:52.858Z,81.82
2018-12-20T06:20:24.317Z,82.36
2018-12-20T06:20:55.575Z,81.57
2018-12-20T06:21:26.809Z,81.36
2018-12-20T06:21:57.937Z,81.63
2018-12-20T06:22:29.056Z,81.97
2018-12-20T06:23:00.188Z,82.05
2018-12-20T06:23:31.293Z,81.96
2018-12-20T06:24:02.450Z,82.27
2018-12-20T06:24:33.557Z,82.49
2018-12-20T06:25:04.680Z,82.85
2018-12-20T06:25:35.807Z,83.00
2018-12-20T06:26:06.929Z,82.13
2018-12-20T06:26:38.058Z,82.74
2018-12-20T06:27:09.204Z,82.78
2018-12-20T06:27:40.350Z,82.58
2018-12-20T06:28:11.488Z,82.51
2018-12-20T06:28:42.612Z,82.29
2018-12-20T06:29:13.808Z,81.96
2018-12-20T06:29:44.970Z,81.92
2018-12-20T06:30:16.136Z,81.96
2018-12-20T06:30:47.315Z,82.07
2018-12-20T06:31:18.429Z,82.29
2018-12-20T06:31:49.541Z,81.65
2018-12-20T06:32:20.653Z,81.92
2018-12-20T06:32:51.768Z,82.09
2018-12-20T06:33:22.878Z,81.62
2018-12-20T06:33:54.029Z,81.78
2018-12-20T06:34:25.226Z,81.96
2018-12-20T06:34:56.358Z,81.66
2018-12-20T06:35:27.501Z,81.74
2018-12-20T06:35:58.629Z,81.00
2018-12-20T06:36:30.923Z,81.01
2018-12-20T06:37:02.080Z,80.90
2018-12-20T06:37:33.196Z,80.47
2018-12-20T06:38:04.315Z,80.78
2018-12-20T06:38:35.436Z,80.27
2018-12-20T06:39:06.544Z,80.61
2018-12-20T06:39:37.696Z,80.18
2018-12-20T06:40:08.813Z,80.49
2018-12-20T06:40:39.921Z,79.86
2018-12-20T06:41:11.043Z,80.04
2018-12-20T06:41:42.146Z,79.33
2018-12-20T06:42:13.261Z,79.44
2018-12-20T06:42:44.379Z,79.74
2018-12-20T06:43:15.544Z,79.83
2018-12-20T06:43:46.676Z,79.48